createdAt,value
2023-01-09T00:00:29.211Z,1.6
2023-01-09T00:03:31.171Z,1.8
2023-01-09T00:06:33.111Z,1.5
2023-01-09T00:09:35.070Z,1.5
2023-01-09T00:12:37.028Z,1.6
2023-01-09T00:15:38.996Z,1.9
2023-01-09T00:18:41.037Z,2
2023-01-09T00:21:42.927Z,1.6
2023-01-09T00:24:44.870Z,1.8
2023-01-09T00:27:46.853Z,2
2023-01-09T00:30:48.832Z,2
2023-01-09T00:33:50.795Z,2.2
2023-01-09T00:36:52.755Z,2
2023-01-09T00:39:54.733Z,2.8
2023-01-09T00:42:56.692Z,2.3
2023-01-09T00:45:58.660Z,2.9
2023-01-09T00:49:00.625Z,3.1
2023-01-09T00:52:02.567Z,2.7
2023-01-09T00:55:04.537Z,3.1
2023-01-09T00:58:06.504Z,3.3
2023-01-09T01:01:08.566Z,3.2
2023-01-09T01:04:10.444Z,3.8
2023-01-09T01:07:12.425Z,3.1
2023-01-09T01:10:14.388Z,3
2023-01-09T01:13:16.370Z,3.6
2023-01-09T01:16:18.415Z,3
2023-01-09T01:19:20.285Z,3.3
2023-01-09T01:22:22.239Z,3
2023-01-09T01:25:24.205Z,3.4
2023-01-09T01:28:26.167Z,2.5
2023-01-09T01:31:28.136Z,3.5
2023-01-09T01:34:30.128Z,3
2023-01-09T01:37:32.073Z,3.6
2023-01-09T01:40:34.064Z,3.3
2023-01-09T01:43:36.016Z,3.6
2023-01-09T01:46:37.975Z,3.8
2023-01-09T01:49:39.937Z,3.3
2023-01-09T01:52:41.882Z,3.8
2023-01-09T01:55:43.858Z,4
2023-01-09T01:58:45.831Z,3.3
2023-01-09T02:01:47.832Z,3.2
2023-01-09T02:04:49.755Z,3.3
2023-01-09T02:07:51.714Z,3.6
2023-01-09T02:10:53.701Z,4
2023-01-09T02:13:55.660Z,2.8
2023-01-09T02:16:57.628Z,3.8
2023-01-09T02:19:59.578Z,2.9
2023-01-09T02:23:01.543Z,3.4
2023-01-09T02:26:03.508Z,2.9
2023-01-09T02:29:05.477Z,2.9
2023-01-09T02:32:07.442Z,2.8
2023-01-09T02:35:09.396Z,2.4
2023-01-09T02:38:11.370Z,2.9
2023-01-09T02:41:13.359Z,2.3
2023-01-09T02:44:15.284Z,2.5
2023-01-09T02:47:17.254Z,2.4
2023-01-09T02:50:19.211Z,2.5
2023-01-09T02:53:21.154Z,2.2
2023-01-09T02:56:23.120Z,2.5
2023-01-09T02:59:25.094Z,2.4
2023-01-09T03:02:27.027Z,2.2
2023-01-09T03:05:29.022Z,2.1
2023-01-09T03:08:30.953Z,2.4
2023-01-09T03:11:32.914Z,2.2
2023-01-09T03:14:34.884Z,1.9
2023-01-09T03:17:36.840Z,1.8
2023-01-09T03:20:38.794Z,1.7
2023-01-09T03:23:40.780Z,1.7
2023-01-09T03:26:42.697Z,1.3
2023-01-09T03:29:44.673Z,0.9
2023-01-09T03:32:46.617Z,1
2023-01-09T03:35:48.586Z,1.2
2023-01-09T03:38:50.575Z,1.1
2023-01-09T03:41:52.527Z,0.9
2023-01-09T03:44:54.488Z,0.8
2023-01-09T03:47:56.471Z,0.7
2023-01-09T03:50:58.417Z,0.6
2023-01-09T03:54:00.411Z,0.6
2023-01-09T03:57:02.355Z,0.6
2023-01-09T04:00:04.329Z,0.7
2023-01-09T04:03:06.295Z,0.6
2023-01-09T04:06:08.253Z,0.5
2023-01-09T04:09:10.253Z,0.5
2023-01-09T04:12:12.207Z,0.4
2023-01-09T04:15:14.175Z,0.4
2023-01-09T04:18:16.143Z,0.7
2023-01-09T04:21:18.119Z,0.5
2023-01-09T04:24:20.075Z,0.5
2023-01-09T04:27:22.029Z,0.4
2023-01-09T04:30:23.992Z,0.3
2023-01-09T04:33:25.962Z,0.4
2023-01-09T04:36:27.924Z,0.5
2023-01-09T04:39:29.902Z,0.4
2023-01-09T04:42:31.859Z,0.3
2023-01-09T04:45:33.831Z,0.4
2023-01-09T04:48:35.782Z,0.4
2023-01-09T04:51:37.740Z,0.5
2023-01-09T04:54:39.699Z,0.4
2023-01-09T04:57:41.644Z,0.3
2023-01-09T05:00:43.639Z,0.4
2023-01-09T05:03:45.621Z,0.4
2023-01-09T05:06:47.551Z,0.3
2023-01-09T05:09:49.517Z,0.4
2023-01-09T05:12:51.481Z,0.3
2023-01-09T05:15:53.414Z,0.3
2023-01-09T05:18:55.437Z,0.3
2023-01-09T05:21:57.374Z,0.3
2023-01-09T05:25:00.500Z,0.3
2023-01-09T05:28:01.293Z,0.4
2023-01-09T05:31:03.236Z,0.4
2023-01-09T05:34:05.197Z,0.3
2023-01-09T05:37:07.147Z,0.3
2023-01-09T05:40:09.137Z,0.2
2023-01-09T05:43:11.281Z,0.4
2023-01-09T05:46:13.058Z,0.4
2023-01-09T05:49:15.052Z,0.3
2023-01-09T05:52:17.018Z,0.4
2023-01-09T05:55:18.979Z,0.4
2023-01-09T05:58:21.049Z,0.3
2023-01-09T06:01:23.697Z,0.5
2023-01-09T06:04:24.846Z,0.4
2023-01-09T06:07:26.795Z,0.5
2023-01-09T06:10:28.753Z,0.4
2023-01-09T06:13:30.723Z,0.5
2023-01-09T06:16:32.659Z,0.3
2023-01-09T06:19:34.635Z,0.4
2023-01-09T06:22:36.585Z,0.4
2023-01-09T06:25:38.586Z,0.5
2023-01-09T06:28:40.520Z,0.5
2023-01-09T06:31:42.481Z,0.7
2023-01-09T06:34:44.451Z,0.5
2023-01-09T06:37:46.406Z,0.5
2023-01-09T06:40:48.405Z,0.7
2023-01-09T06:43:50.363Z,0.7
2023-01-09T06:46:52.461Z,0.5
2023-01-09T06:49:54.272Z,0.7
2023-01-09T06:52:56.257Z,0.6
2023-01-09T06:55:58.197Z,1
2023-01-09T06:59:00.168Z,0.7
2023-01-09T07:02:02.220Z,0.6
2023-01-09T07:05:04.107Z,1
2023-01-09T07:08:06.075Z,0.7
2023-01-09T07:11:08.045Z,0.6
2023-01-09T07:14:10.009Z,1.1
2023-01-09T07:17:11.958Z,0.8
2023-01-09T07:20:13.928Z,1.1
2023-01-09T07:23:15.890Z,0.7
2023-01-09T07:26:17.827Z,0.8
2023-01-09T07:29:19.879Z,0.8
2023-01-09T07:32:21.816Z,0.9
2023-01-09T07:35:23.865Z,0.9
2023-01-09T07:38:25.823Z,0.9
2023-01-09T07:41:27.787Z,0.9
2023-01-09T07:44:29.859Z,1
2023-01-09T07:47:31.711Z,1.1
2023-01-09T07:50:33.678Z,1
2023-01-09T07:53:35.655Z,0.8
2023-01-09T07:56:37.607Z,1
2023-01-09T07:59:39.550Z,0.9
2023-01-09T08:02:41.591Z,0.7
2023-01-09T08:05:43.472Z,0.6
2023-01-09T08:08:45.444Z,1
2023-01-09T08:11:47.417Z,1.1
2023-01-09T08:14:49.384Z,0.8
2023-01-09T08:17:51.363Z,0.9
2023-01-09T08:20:53.334Z,0.9
2023-01-09T08:23:55.406Z,0.9
2023-01-09T08:26:57.256Z,0.8
2023-01-09T08:29:59.221Z,0.7
2023-01-09T08:33:01.161Z,0.7
2023-01-09T08:36:03.180Z,1.4
2023-01-09T08:39:05.078Z,0.8
2023-01-09T08:42:07.037Z,0.7
2023-01-09T08:45:09.018Z,0.8
2023-01-09T08:48:11.009Z,0.8
2023-01-09T08:51:12.974Z,0.9
2023-01-09T08:54:14.918Z,0.9
2023-01-09T08:57:16.882Z,0.9
2023-01-09T09:00:18.911Z,0.8
2023-01-09T09:03:20.835Z,0.8
2023-01-09T09:06:22.776Z,0.9
2023-01-09T09:09:24.746Z,0.8
2023-01-09T09:12:26.758Z,0.8
2023-01-09T09:15:28.689Z,0.6
2023-01-09T09:18:30.650Z,0.7
2023-01-09T09:21:32.577Z,0.8
2023-01-09T09:24:34.562Z,0.7
2023-01-09T09:27:36.564Z,0.6
2023-01-09T09:30:38.488Z,0.5
2023-01-09T09:33:40.456Z,0.6
2023-01-09T09:36:42.455Z,0.7
2023-01-09T09:39:44.447Z,0.6
2023-01-09T09:42:46.388Z,0.5
2023-01-09T09:45:48.392Z,0.6
2023-01-09T09:48:50.349Z,0.7
2023-01-09T09:51:52.398Z,0.6
2023-01-09T09:54:54.270Z,0.6
2023-01-09T09:57:56.237Z,0.7
2023-01-09T10:00:58.218Z,0.6
2023-01-09T10:04:00.388Z,0.9
2023-01-09T10:07:02.168Z,0.8
2023-01-09T10:10:04.110Z,0.6
2023-01-09T10:13:06.079Z,0.6
2023-01-09T10:16:08.177Z,0.6
2023-01-09T10:19:10.030Z,0.6
2023-01-09T10:22:11.986Z,0.6
2023-01-09T10:25:13.969Z,0.8
2023-01-09T10:28:15.919Z,0.7
2023-01-09T10:31:17.902Z,0.6
2023-01-09T10:34:19.852Z,1
2023-01-09T10:37:21.819Z,0.6
2023-01-09T10:40:23.784Z,0.9
2023-01-09T10:43:25.806Z,0.6
2023-01-09T10:46:27.731Z,0.8
2023-01-09T10:49:29.694Z,0.9
2023-01-09T10:52:31.673Z,0.6
2023-01-09T10:55:33.641Z,0.7
2023-01-09T10:58:35.581Z,0.7
2023-01-09T11:01:37.646Z,0.8
2023-01-09T11:04:39.540Z,0.8
2023-01-09T11:07:41.504Z,0.9
2023-01-09T11:10:43.447Z,0.7
2023-01-09T11:13:45.441Z,1
2023-01-09T11:16:47.385Z,0.9
2023-01-09T11:19:49.374Z,0.7
2023-01-09T11:22:51.327Z,0.7
2023-01-09T11:25:53.295Z,0.7
2023-01-09T11:28:55.245Z,0.8
2023-01-09T11:31:57.228Z,0.5
2023-01-09T11:34:59.189Z,0.7
2023-01-09T11:38:01.168Z,0.6
2023-01-09T11:41:03.112Z,0.6
2023-01-09T11:44:05.183Z,0.6
2023-01-09T11:47:07.046Z,0.7
2023-01-09T11:50:09.011Z,0.8
2023-01-09T11:53:10.986Z,0.6
2023-01-09T11:56:12.947Z,0.7
2023-01-09T11:59:14.932Z,0.9
2023-01-09T12:02:16.958Z,0.6
2023-01-09T12:05:18.869Z,0.8
2023-01-09T12:08:20.839Z,0.8
2023-01-09T12:11:22.816Z,0.8
2023-01-09T12:14:24.741Z,0.8
2023-01-09T12:17:26.723Z,0.9
2023-01-09T12:20:28.681Z,0.9
2023-01-09T12:23:30.667Z,0.8
2023-01-09T12:26:32.599Z,1.2
2023-01-09T12:29:34.589Z,0.8
2023-01-09T12:32:36.517Z,0.7
2023-01-09T12:35:38.503Z,0.7
2023-01-09T12:38:40.447Z,1.1
2023-01-09T12:41:42.410Z,0.8
2023-01-09T12:44:44.362Z,0.7
2023-01-09T12:47:46.446Z,0.8
2023-01-09T12:50:48.302Z,0.9
2023-01-09T12:53:50.289Z,0.9
2023-01-09T12:56:52.244Z,1.2
2023-01-09T12:59:54.193Z,1.2
2023-01-09T13:03:03.719Z,0.7
2023-01-09T13:05:58.147Z,0.7
2023-01-09T13:09:00.099Z,1.1
2023-01-09T13:12:02.078Z,0.7
2023-01-09T13:15:04.047Z,0.6
2023-01-09T13:18:06.038Z,0.8
2023-01-09T13:21:07.965Z,0.6
2023-01-09T13:24:09.935Z,0.5
2023-01-09T13:27:11.905Z,0.9
2023-01-09T13:30:14.038Z,0.6
2023-01-09T13:33:15.841Z,1
2023-01-09T13:36:19.151Z,0.8
2023-01-09T13:39:19.777Z,0.7
2023-01-09T13:42:21.737Z,0.8
2023-01-09T13:45:25.560Z,0.7
2023-01-09T13:48:25.661Z,0.5
2023-01-09T13:51:27.615Z,0.5
2023-01-09T13:54:29.575Z,0.5
2023-01-09T13:57:31.550Z,0.6
2023-01-09T14:00:33.501Z,0.5
2023-01-09T14:03:35.451Z,0.4
2023-01-09T14:06:37.405Z,0.3
2023-01-09T14:09:39.392Z,0.4
2023-01-09T14:12:41.335Z,0.4
2023-01-09T14:15:43.286Z,0.3
2023-01-09T14:18:45.251Z,0.5
2023-01-09T14:21:47.209Z,0.4
2023-01-09T14:24:49.172Z,0.4
2023-01-09T14:27:51.131Z,0.6
2023-01-09T14:30:53.160Z,0.6
2023-01-09T14:33:55.204Z,0.4
2023-01-09T14:36:57.027Z,0.5
2023-01-09T14:39:58.991Z,0.4
2023-01-09T14:43:00.945Z,0.5
2023-01-09T14:46:02.926Z,0.5
2023-01-09T14:49:04.895Z,0.4
2023-01-09T14:52:06.833Z,0.6
2023-01-09T14:55:08.807Z,0.5
2023-01-09T14:58:10.793Z,0.5
2023-01-09T15:01:12.761Z,0.5
2023-01-09T15:04:14.676Z,0.3
2023-01-09T15:07:16.656Z,0.4
2023-01-09T15:10:18.635Z,0.6
2023-01-09T15:13:20.636Z,0.4
2023-01-09T15:16:22.665Z,0.5
2023-01-09T15:19:24.565Z,0.6
2023-01-09T15:22:26.520Z,0.5
2023-01-09T15:25:37.989Z,0.5
2023-01-09T15:28:30.444Z,0.4
2023-01-09T15:31:32.443Z,0.4
2023-01-09T15:34:34.387Z,0.6
2023-01-09T15:37:38.767Z,0.6
2023-01-09T15:40:38.322Z,0.5
2023-01-09T15:43:40.300Z,0.4
2023-01-09T15:46:42.248Z,0.5
2023-01-09T15:49:44.226Z,0.5
2023-01-09T15:52:46.178Z,0.5
2023-01-09T15:55:48.139Z,0.5
2023-01-09T15:58:50.091Z,0.5
2023-01-09T16:01:52.078Z,0.5
2023-01-09T16:04:54.012Z,0.5
2023-01-09T16:07:55.998Z,0.7
2023-01-09T16:10:57.964Z,0.8
2023-01-09T16:13:59.914Z,0.6
2023-01-09T16:17:01.899Z,0.6
2023-01-09T16:20:03.845Z,0.7
2023-01-09T16:23:05.804Z,0.5
2023-01-09T16:26:07.864Z,0.4
2023-01-09T16:29:09.752Z,0.3
2023-01-09T16:32:11.747Z,0.4
2023-01-09T16:44:19.679Z,0.6
2023-01-09T16:47:21.581Z,0.6
2023-01-09T16:53:25.437Z,0.6
2023-01-09T16:56:27.408Z,0.5
2023-01-09T16:59:29.358Z,0.7
2023-01-09T17:02:31.427Z,0.6
2023-01-09T17:05:33.304Z,0.6
2023-01-09T17:08:35.253Z,0.8
2023-01-09T17:11:37.241Z,0.7
2023-01-09T17:14:39.195Z,1.1
2023-01-09T17:17:41.149Z,0.9
2023-01-09T17:20:43.140Z,0.7
2023-01-09T17:23:45.086Z,0.9
2023-01-09T17:26:47.047Z,0.6
2023-01-09T17:29:49.027Z,0.6
2023-01-09T17:32:50.981Z,1
2023-01-09T17:35:52.955Z,0.7
2023-01-09T17:38:55.002Z,1.2
2023-01-09T17:41:56.881Z,1
2023-01-09T17:44:58.857Z,0.9
2023-01-09T17:48:00.823Z,0.9
2023-01-09T17:51:02.782Z,0.8
2023-01-09T17:54:04.831Z,0.9
2023-01-09T17:57:06.714Z,0.6
2023-01-09T18:00:08.668Z,0.7
2023-01-09T18:03:10.647Z,0.8
2023-01-09T18:06:12.615Z,0.8
2023-01-09T18:09:14.627Z,0.9
2023-01-09T18:12:16.547Z,0.9
2023-01-09T18:15:18.492Z,1
2023-01-09T18:18:20.457Z,0.8
2023-01-09T18:21:22.434Z,0.9
2023-01-09T18:24:24.407Z,0.9
2023-01-09T18:27:26.353Z,0.8
2023-01-09T18:30:28.318Z,0.7
2023-01-09T18:33:30.282Z,0.6
2023-01-09T18:36:32.297Z,0.7
2023-01-09T18:39:34.227Z,0.6
2023-01-09T18:42:36.191Z,1.1
2023-01-09T18:45:38.198Z,0.7
2023-01-09T18:48:40.135Z,0.8
2023-01-09T18:51:42.130Z,0.6
2023-01-09T18:54:44.084Z,0.6
2023-01-09T18:57:46.035Z,1
2023-01-09T19:00:48.023Z,1
2023-01-09T19:03:50.013Z,0.7
2023-01-09T19:06:51.951Z,0.8
2023-01-09T19:09:53.904Z,0.8
2023-01-09T19:12:55.865Z,0.7
2023-01-09T19:15:57.976Z,0.9
2023-01-09T19:18:59.912Z,0.8
2023-01-09T19:22:01.885Z,0.9
2023-01-09T19:25:03.857Z,1
2023-01-09T19:28:05.793Z,0.8
2023-01-09T19:31:08.808Z,0.8
2023-01-09T19:34:10.693Z,0.9
2023-01-09T19:37:12.692Z,0.9
2023-01-09T19:40:14.672Z,1
2023-01-09T19:43:16.555Z,0.9
2023-01-09T19:46:18.766Z,0.7
2023-01-09T19:49:20.532Z,0.9
2023-01-09T19:52:22.575Z,1.1
2023-01-09T19:55:24.537Z,0.8
2023-01-09T19:58:27.803Z,1
2023-01-09T20:01:28.519Z,1
2023-01-09T20:04:30.439Z,1.1
2023-01-09T20:07:32.404Z,0.8
2023-01-09T20:10:34.349Z,0.8
2023-01-09T20:13:36.332Z,0.8
2023-01-09T20:16:38.301Z,0.9
2023-01-09T20:19:40.228Z,0.9
2023-01-09T20:22:42.243Z,0.7
2023-01-09T20:25:44.148Z,0.7
2023-01-09T20:28:46.078Z,1.1
2023-01-09T20:31:48.175Z,0.9
2023-01-09T20:34:50.032Z,0.9
2023-01-09T20:37:52.028Z,0.9
2023-01-09T20:40:53.991Z,0.9
2023-01-09T20:43:56.055Z,1.1
2023-01-09T20:46:57.932Z,0.9
2023-01-09T20:49:59.877Z,0.8
2023-01-09T20:53:01.836Z,1.1
2023-01-09T20:56:03.809Z,1.1
2023-01-09T20:59:05.778Z,1
2023-01-09T21:02:07.729Z,0.9
2023-01-09T21:05:09.702Z,0.9
2023-01-09T21:08:11.667Z,0.7
2023-01-09T21:11:13.633Z,1
2023-01-09T21:14:15.677Z,0.9
2023-01-09T21:17:17.635Z,0.9
2023-01-09T21:20:19.596Z,0.9
2023-01-09T21:23:21.574Z,1
2023-01-09T21:26:23.525Z,0.8
2023-01-09T21:29:25.513Z,1.2
2023-01-09T21:32:27.450Z,0.8
2023-01-09T21:35:29.413Z,0.8
2023-01-09T21:38:31.371Z,0.9
2023-01-09T21:41:33.319Z,0.8
2023-01-09T21:44:35.284Z,0.9
2023-01-09T21:47:37.238Z,0.9
2023-01-09T21:50:39.197Z,0.7
2023-01-09T21:53:41.158Z,0.9
2023-01-09T21:56:43.145Z,0.9
2023-01-09T21:59:45.075Z,1.1
2023-01-09T22:02:47.048Z,1.2
2023-01-09T22:05:49.002Z,1
2023-01-09T22:08:50.961Z,1
2023-01-09T22:11:52.938Z,1.2
2023-01-09T22:14:54.903Z,1
2023-01-09T22:17:56.858Z,0.9
2023-01-09T22:20:58.844Z,1
2023-01-09T22:24:00.808Z,0.9
2023-01-09T22:27:02.754Z,1.1
2023-01-09T22:30:04.727Z,1.1
2023-01-09T22:33:06.703Z,0.8
2023-01-09T22:36:08.667Z,1.2
2023-01-09T22:39:10.627Z,1
2023-01-09T22:42:12.587Z,1.1
2023-01-09T22:45:14.543Z,0.9
2023-01-09T22:48:16.513Z,1.1
2023-01-09T22:51:18.475Z,1
2023-01-09T22:54:20.427Z,1.1
2023-01-09T22:57:22.384Z,1
2023-01-09T23:00:24.358Z,0.8
2023-01-09T23:03:26.316Z,1.1
2023-01-09T23:06:28.287Z,1
2023-01-09T23:09:30.246Z,0.9
2023-01-09T23:12:32.192Z,0.8
2023-01-09T23:15:34.167Z,0.9
2023-01-09T23:18:36.139Z,0.9
2023-01-09T23:21:38.116Z,1
2023-01-09T23:24:40.062Z,1
2023-01-09T23:27:42.058Z,0.9
2023-01-09T23:30:43.997Z,1
2023-01-09T23:33:45.965Z,0.9
2023-01-09T23:36:47.954Z,1
2023-01-09T23:39:49.886Z,1.3
2023-01-09T23:42:51.847Z,1.2
2023-01-09T23:45:53.968Z,1.1
2023-01-09T23:48:55.736Z,1.3
2023-01-09T23:51:57.696Z,1.2
2023-01-09T23:54:59.698Z,1.2
2023-01-09T23:58:01.661Z,1.1
